sensor_id;sensor_type;location;lat;lon;timestamp;P1;P2;P0
77692;PMS5003;66984;47.404;18.836;2023-06-10T00:00:08;12.00;10.50;5.00
77692;PMS5003;66984;47.404;18.836;2023-06-10T00:01:21;12.00;11.00;4.00
77692;PMS5003;66984;47.404;18.836;2023-06-10T00:02:26;10.50;8.00;3.00
77692;PMS5003;66984;47.404;18.836;2023-06-10T00:03:30;9.00;8.25;3.75
77692;PMS5003;66984;47.404;18.836;2023-06-10T00:04:33;8.75;8.75;4.00
77692;PMS5003;66984;47.404;18.836;2023-06-10T00:05:37;7.25;7.25;3.75
77692;PMS5003;66984;47.404;18.836;2023-06-10T00:06:47;8.00;8.00;3.00
77692;PMS5003;66984;47.404;18.836;2023-06-10T00:07:52;9.75;9.75;4.00
77692;PMS5003;66984;47.404;18.836;2023-06-10T00:08:57;11.00;10.00;3.25
77692;PMS5003;66984;47.404;18.836;2023-06-10T00:10:00;13.00;11.00;4.00
77692;PMS5003;66984;47.404;18.836;2023-06-10T00:11:07;10.75;8.00;3.00
77692;PMS5003;66984;47.404;18.836;2023-06-10T00:12:16;11.00;11.00;4.00
77692;PMS5003;66984;47.404;18.836;2023-06-10T00:13:31;10.00;8.00;4.00
77692;PMS5003;66984;47.404;18.836;2023-06-10T00:14:36;11.50;10.00;6.00
77692;PMS5003;66984;47.404;18.836;2023-06-10T00:15:40;12.75;9.00;4.00
77692;PMS5003;66984;47.404;18.836;2023-06-10T00:16:43;11.00;9.25;4.00
77692;PMS5003;66984;47.404;18.836;2023-06-10T00:17:54;8.00;8.00;2.00
77692;PMS5003;66984;47.404;18.836;2023-06-10T00:18:58;7.00;6.00;1.25
77692;PMS5003;66984;47.404;18.836;2023-06-10T00:20:12;7.75;7.00;2.00
77692;PMS5003;66984;47.404;18.836;2023-06-10T00:21:15;8.00;8.00;2.00
77692;PMS5003;66984;47.404;18.836;2023-06-10T00:22:18;6.00;6.00;3.00
77692;PMS5003;66984;47.404;18.836;2023-06-10T00:23:21;8.00;7.75;4.00
77692;PMS5003;66984;47.404;18.836;2023-06-10T00:24:31;6.00;6.00;2.00
77692;PMS5003;66984;47.404;18.836;2023-06-10T00:25:34;8.00;6.75;3.00
77692;PMS5003;66984;47.404;18.836;2023-06-10T00:26:38;8.50;8.50;1.00
77692;PMS5003;66984;47.404;18.836;2023-06-10T00:27:42;8.00;8.00;2.00
77692;PMS5003;66984;47.404;18.836;2023-06-10T00:28:45;7.00;6.00;3.00
77692;PMS5003;66984;47.404;18.836;2023-06-10T00:29:54;8.00;8.00;3.75
77692;PMS5003;66984;47.404;18.836;2023-06-10T00:30:57;9.00;8.00;4.00
77692;PMS5003;66984;47.404;18.836;2023-06-10T00:32:00;8.00;8.00;3.00
77692;PMS5003;66984;47.404;18.836;2023-06-10T00:33:03;7.00;7.00;3.00
77692;PMS5003;66984;47.404;18.836;2023-06-10T00:34:06;7.50;7.00;3.00
77692;PMS5003;66984;47.404;18.836;2023-06-10T00:35:16;10.00;8.25;3.00
77692;PMS5003;66984;47.404;18.836;2023-06-10T00:36:26;9.00;8.00;2.00
77692;PMS5003;66984;47.404;18.836;2023-06-10T00:37:29;7.25;6.25;3.00
77692;PMS5003;66984;47.404;18.836;2023-06-10T00:38:32;8.00;8.00;3.25
77692;PMS5003;66984;47.404;18.836;2023-06-10T00:39:35;7.75;7.75;2.00
77692;PMS5003;66984;47.404;18.836;2023-06-10T00:40:39;6.50;6.00;3.00
77692;PMS5003;66984;47.404;18.836;2023-06-10T00:41:49;9.00;7.75;2.00
77692;PMS5003;66984;47.404;18.836;2023-06-10T00:42:52;7.75;7.00;3.00
77692;PMS5003;66984;47.404;18.836;2023-06-10T00:43:55;7.50;7.25;3.00
77692;PMS5003;66984;47.404;18.836;2023-06-10T00:44:58;7.00;6.25;2.25
77692;PMS5003;66984;47.404;18.836;2023-06-10T00:46:08;7.00;6.00;3.00
77692;PMS5003;66984;47.404;18.836;2023-06-10T00:47:12;7.00;7.00;4.00
77692;PMS5003;66984;47.404;18.836;2023-06-10T00:48:15;7.50;6.25;2.00
77692;PMS5003;66984;47.404;18.836;2023-06-10T00:49:18;8.25;8.00;2.50
77692;PMS5003;66984;47.404;18.836;2023-06-10T00:50:21;9.75;9.75;2.00
77692;PMS5003;66984;47.404;18.836;2023-06-10T00:51:31;9.00;8.25;3.25
77692;PMS5003;66984;47.404;18.836;2023-06-10T00:52:34;7.50;6.50;4.00
77692;PMS5003;66984;47.404;18.836;2023-06-10T00:53:39;12.25;9.50;4.00
77692;PMS5003;66984;47.404;18.836;2023-06-10T00:54:43;9.00;8.25;3.00
77692;PMS5003;66984;47.404;18.836;2023-06-10T00:55:47;6.75;6.75;3.00
77692;PMS5003;66984;47.404;18.836;2023-06-10T00:57:00;6.00;6.00;3.00
77692;PMS5003;66984;47.404;18.836;2023-06-10T00:58:04;9.50;9.00;4.00
77692;PMS5003;66984;47.404;18.836;2023-06-10T00:59:07;9.25;9.00;3.50
77692;PMS5003;66984;47.404;18.836;2023-06-10T01:00:10;11.00;11.00;5.00
77692;PMS5003;66984;47.404;18.836;2023-06-10T01:01:15;12.00;9.75;5.00
77692;PMS5003;66984;47.404;18.836;2023-06-10T01:02:24;13.00;9.75;4.00
77692;PMS5003;66984;47.404;18.836;2023-06-10T01:03:27;11.50;10.25;4.00
77692;PMS5003;66984;47.404;18.836;2023-06-10T01:04:31;13.00;12.00;6.00
77692;PMS5003;66984;47.404;18.836;2023-06-10T01:05:34;13.00;13.00;3.00
77692;PMS5003;66984;47.404;18.836;2023-06-10T01:06:59;12.75;12.75;4.50
77692;PMS5003;66984;47.404;18.836;2023-06-10T01:08:33;15.00;15.00;6.00
77692;PMS5003;66984;47.404;18.836;2023-06-10T01:09:49;13.50;13.00;4.00
77692;PMS5003;66984;47.404;18.836;2023-06-10T01:11:00;10.00;9.00;4.00
77692;PMS5003;66984;47.404;18.836;2023-06-10T01:12:15;11.25;11.00;4.00
77692;PMS5003;66984;47.404;18.836;2023-06-10T01:13:36;12.50;10.75;4.00
77692;PMS5003;66984;47.404;18.836;2023-06-10T01:15:03;11.75;10.75;4.00
77692;PMS5003;66984;47.404;18.836;2023-06-10T01:16:13;10.00;10.00;4.50
77692;PMS5003;66984;47.404;18.836;2023-06-10T01:17:16;12.00;10.50;4.50
77692;PMS5003;66984;47.404;18.836;2023-06-10T01:18:30;15.00;12.75;5.00
77692;PMS5003;66984;47.404;18.836;2023-06-10T01:19:34;15.00;12.00;5.00
77692;PMS5003;66984;47.404;18.836;2023-06-10T01:20:38;13.00;11.50;5.00
77692;PMS5003;66984;47.404;18.836;2023-06-10T01:21:42;10.00;8.75;4.00
77692;PMS5003;66984;47.404;18.836;2023-06-10T01:22:50;9.00;8.00;3.75
77692;PMS5003;66984;47.404;18.836;2023-06-10T01:24:03;12.00;11.75;6.00
77692;PMS5003;66984;47.404;18.836;2023-06-10T01:25:10;15.50;12.50;4.50
77692;PMS5003;66984;47.404;18.836;2023-06-10T01:26:14;14.00;11.00;5.50
77692;PMS5003;66984;47.404;18.836;2023-06-10T01:27:19;12.00;10.00;5.00
77692;PMS5003;66984;47.404;18.836;2023-06-10T01:28:36;13.00;12.25;4.00
77692;PMS5003;66984;47.404;18.836;2023-06-10T01:29:59;11.50;10.00;4.00
77692;PMS5003;66984;47.404;18.836;2023-06-10T01:31:20;14.75;10.25;4.00
77692;PMS5003;66984;47.404;18.836;2023-06-10T01:32:40;11.75;8.00;4.00
77692;PMS5003;66984;47.404;18.836;2023-06-10T01:33:49;11.00;8.00;4.00
77692;PMS5003;66984;47.404;18.836;2023-06-10T01:35:02;11.00;9.00;4.00
77692;PMS5003;66984;47.404;18.836;2023-06-10T01:36:08;12.00;12.00;5.00
77692;PMS5003;66984;47.404;18.836;2023-06-10T01:37:12;11.00;11.00;4.00
77692;PMS5003;66984;47.404;18.836;2023-06-10T01:38:18;10.00;9.75;4.00
77692;PMS5003;66984;47.404;18.836;2023-06-10T01:39:23;10.75;10.00;4.00
77692;PMS5003;66984;47.404;18.836;2023-06-10T01:40:34;9.00;9.00;3.00
77692;PMS5003;66984;47.404;18.836;2023-06-10T01:41:39;12.50;12.00;2.75
77692;PMS5003;66984;47.404;18.836;2023-06-10T01:42:42;12.50;11.50;4.00
77692;PMS5003;66984;47.404;18.836;2023-06-10T01:43:46;11.00;10.00;4.00
77692;PMS5003;66984;47.404;18.836;2023-06-10T01:44:50;10.75;9.75;4.00
77692;PMS5003;66984;47.404;18.836;2023-06-10T01:46:00;11.00;10.25;5.00
77692;PMS5003;66984;47.404;18.836;2023-06-10T01:47:03;12.00;10.00;4.50
77692;PMS5003;66984;47.404;18.836;2023-06-10T01:48:07;11.00;9.00;4.00
77692;PMS5003;66984;47.404;18.836;2023-06-10T01:49:10;9.50;9.25;4.00
77692;PMS5003;66984;47.404;18.836;2023-06-10T01:50:13;12.50;11.50;5.00
77692;PMS5003;66984;47.404;18.836;2023-06-10T01:51:22;11.00;10.00;4.00
77692;PMS5003;66984;47.404;18.836;2023-06-10T01:52:25;14.50;11.00;4.00
77692;PMS5003;66984;47.404;18.836;2023-06-10T01:53:28;12.75;9.00;3.00
77692;PMS5003;66984;47.404;18.836;2023-06-10T01:54:31;10.25;8.00;3.00
77692;PMS5003;66984;47.404;18.836;2023-06-10T01:55:34;10.00;8.00;3.00
77692;PMS5003;66984;47.404;18.836;2023-06-10T01:56:43;10.75;8.25;3.00
77692;PMS5003;66984;47.404;18.836;2023-06-10T01:57:46;8.00;7.00;3.50
77692;PMS5003;66984;47.404;18.836;2023-06-10T01:58:49;8.00;7.75;4.00
77692;PMS5003;66984;47.404;18.836;2023-06-10T01:59:52;9.00;9.00;4.00
77692;PMS5003;66984;47.404;18.836;2023-06-10T02:00:55;10.50;10.50;3.00
77692;PMS5003;66984;47.404;18.836;2023-06-10T02:02:04;7.00;7.00;2.00
77692;PMS5003;66984;47.404;18.836;2023-06-10T02:03:08;7.50;7.50;3.00
77692;PMS5003;66984;47.404;18.836;2023-06-10T02:04:11;10.00;10.00;4.00
77692;PMS5003;66984;47.404;18.836;2023-06-10T02:05:13;9.00;9.00;4.00
77692;PMS5003;66984;47.404;18.836;2023-06-10T02:06:16;9.75;9.75;4.00
77692;PMS5003;66984;47.404;18.836;2023-06-10T02:07:26;9.00;8.00;3.00
77692;PMS5003;66984;47.404;18.836;2023-06-10T02:08:29;12.00;10.00;4.00
77692;PMS5003;66984;47.404;18.836;2023-06-10T02:09:32;12.00;9.50;2.25
77692;PMS5003;66984;47.404;18.836;2023-06-10T02:10:37;13.50;9.75;3.50
77692;PMS5003;66984;47.404;18.836;2023-06-10T02:11:40;15.00;10.50;3.00
77692;PMS5003;66984;47.404;18.836;2023-06-10T02:12:49;12.00;9.00;3.00
77692;PMS5003;66984;47.404;18.836;2023-06-10T02:13:59;11.00;10.00;4.50
77692;PMS5003;66984;47.404;18.836;2023-06-10T02:15:15;9.75;9.00;4.00
77692;PMS5003;66984;47.404;18.836;2023-06-10T02:16:18;8.00;8.00;4.00
77692;PMS5003;66984;47.404;18.836;2023-06-10T02:17:27;9.00;8.00;3.00
77692;PMS5003;66984;47.404;18.836;2023-06-10T02:18:32;10.00;10.00;3.00
77692;PMS5003;66984;47.404;18.836;2023-06-10T02:19:36;10.00;8.00;3.00
77692;PMS5003;66984;47.404;18.836;2023-06-10T02:20:39;9.00;9.00;4.00
77692;PMS5003;66984;47.404;18.836;2023-06-10T02:21:42;9.00;9.00;3.75
77692;PMS5003;66984;47.404;18.836;2023-06-10T02:22:51;11.00;10.00;4.00
77692;PMS5003;66984;47.404;18.836;2023-06-10T02:23:54;12.75;11.75;4.00
77692;PMS5003;66984;47.404;18.836;2023-06-10T02:24:57;11.00;9.00;4.00
77692;PMS5003;66984;47.404;18.836;2023-06-10T02:26:01;11.00;11.00;4.00
77692;PMS5003;66984;47.404;18.836;2023-06-10T02:27:04;10.00;10.00;4.50
77692;PMS5003;66984;47.404;18.836;2023-06-10T02:28:15;10.50;9.50;4.50
77692;PMS5003;66984;47.404;18.836;2023-06-10T02:29:18;9.00;8.00;3.00
77692;PMS5003;66984;47.404;18.836;2023-06-10T02:30:27;8.00;7.00;3.00
77692;PMS5003;66984;47.404;18.836;2023-06-10T02:31:36;8.25;7.50;3.00
77692;PMS5003;66984;47.404;18.836;2023-06-10T02:32:40;10.00;9.75;3.00
77692;PMS5003;66984;47.404;18.836;2023-06-10T02:33:44;10.00;10.00;4.00
77692;PMS5003;66984;47.404;18.836;2023-06-10T02:34:47;8.00;7.00;3.00
77692;PMS5003;66984;47.404;18.836;2023-06-10T02:35:51;9.75;9.00;4.00
77692;PMS5003;66984;47.404;18.836;2023-06-10T02:37:00;10.25;10.25;3.00
77692;PMS5003;66984;47.404;18.836;2023-06-10T02:38:03;9.00;8.00;3.00
77692;PMS5003;66984;47.404;18.836;2023-06-10T02:39:07;7.75;7.00;3.00
77692;PMS5003;66984;47.404;18.836;2023-06-10T02:40:11;10.00;10.00;3.00
77692;PMS5003;66984;47.404;18.836;2023-06-10T02:41:14;9.50;9.00;3.75
77692;PMS5003;66984;47.404;18.836;2023-06-10T02:42:23;8.00;8.00;4.00
77692;PMS5003;66984;47.404;18.836;2023-06-10T02:43:26;12.75;10.50;4.00
77692;PMS5003;66984;47.404;18.836;2023-06-10T02:44:30;10.00;8.00;4.00
77692;PMS5003;66984;47.404;18.836;2023-06-10T02:45:33;9.25;8.50;3.00
77692;PMS5003;66984;47.404;18.836;2023-06-10T02:46:42;12.00;9.00;4.00
77692;PMS5003;66984;47.404;18.836;2023-06-10T02:47:48;11.00;8.50;3.00
77692;PMS5003;66984;47.404;18.836;2023-06-10T02:48:51;11.00;8.25;2.00
77692;PMS5003;66984;47.404;18.836;2023-06-10T02:49:54;17.00;14.00;5.00
77692;PMS5003;66984;47.404;18.836;2023-06-10T02:50:57;14.00;8.00;4.00
77692;PMS5003;66984;47.404;18.836;2023-06-10T02:52:06;11.00;7.25;3.00
77692;PMS5003;66984;47.404;18.836;2023-06-10T02:53:10;8.00;8.00;4.00
77692;PMS5003;66984;47.404;18.836;2023-06-10T02:54:13;9.50;8.00;3.00
77692;PMS5003;66984;47.404;18.836;2023-06-10T02:55:16;8.75;8.50;4.00
77692;PMS5003;66984;47.404;18.836;2023-06-10T02:56:19;10.00;9.00;3.50
77692;PMS5003;66984;47.404;18.836;2023-06-10T02:57:28;9.00;9.00;3.00
77692;PMS5003;66984;47.404;18.836;2023-06-10T02:58:31;11.00;11.00;5.00
77692;PMS5003;66984;47.404;18.836;2023-06-10T02:59:34;12.25;12.00;5.00
77692;PMS5003;66984;47.404;18.836;2023-06-10T03:00:37;13.00;12.00;5.75
77692;PMS5003;66984;47.404;18.836;2023-06-10T03:01:43;14.00;11.00;4.50
77692;PMS5003;66984;47.404;18.836;2023-06-10T03:02:53;13.00;12.00;4.75
77692;PMS5003;66984;47.404;18.836;2023-06-10T03:03:59;13.00;12.00;6.00
77692;PMS5003;66984;47.404;18.836;2023-06-10T03:05:03;10.25;9.00;4.00
77692;PMS5003;66984;47.404;18.836;2023-06-10T03:06:06;10.50;9.25;3.00
77692;PMS5003;66984;47.404;18.836;2023-06-10T03:07:09;12.00;12.00;4.00
77692;PMS5003;66984;47.404;18.836;2023-06-10T03:08:19;12.25;12.00;4.00
77692;PMS5003;66984;47.404;18.836;2023-06-10T03:09:22;12.75;12.75;3.75
77692;PMS5003;66984;47.404;18.836;2023-06-10T03:10:25;9.75;8.75;4.00
77692;PMS5003;66984;47.404;18.836;2023-06-10T03:11:29;10.00;10.00;4.00
77692;PMS5003;66984;47.404;18.836;2023-06-10T03:12:32;11.00;9.50;4.00
77692;PMS5003;66984;47.404;18.836;2023-06-10T03:13:41;10.00;9.00;4.00
77692;PMS5003;66984;47.404;18.836;2023-06-10T03:14:51;12.00;10.00;4.00
77692;PMS5003;66984;47.404;18.836;2023-06-10T03:16:15;13.25;12.00;5.50
77692;PMS5003;66984;47.404;18.836;2023-06-10T03:17:18;14.50;12.50;6.00
77692;PMS5003;66984;47.404;18.836;2023-06-10T03:18:27;12.00;10.00;4.00
77692;PMS5003;66984;47.404;18.836;2023-06-10T03:19:31;11.00;9.50;4.00
77692;PMS5003;66984;47.404;18.836;2023-06-10T03:20:35;14.00;13.00;5.00
77692;PMS5003;66984;47.404;18.836;2023-06-10T03:21:43;14.25;13.75;4.00
77692;PMS5003;66984;47.404;18.836;2023-06-10T03:22:47;16.00;15.50;4.00
77692;PMS5003;66984;47.404;18.836;2023-06-10T03:23:56;17.75;15.50;4.00
77692;PMS5003;66984;47.404;18.836;2023-06-10T03:24:59;17.00;16.75;6.00
77692;PMS5003;66984;47.404;18.836;2023-06-10T03:26:02;17.50;17.50;6.00
77692;PMS5003;66984;47.404;18.836;2023-06-10T03:27:07;16.00;16.00;5.00
77692;PMS5003;66984;47.404;18.836;2023-06-10T03:28:10;17.25;17.00;6.00
77692;PMS5003;66984;47.404;18.836;2023-06-10T03:29:20;15.00;15.00;5.00
77692;PMS5003;66984;47.404;18.836;2023-06-10T03:30:24;10.00;9.75;5.00
77692;PMS5003;66984;47.404;18.836;2023-06-10T03:31:27;9.00;7.00;4.00
77692;PMS5003;66984;47.404;18.836;2023-06-10T03:32:30;7.00;7.00;3.00
77692;PMS5003;66984;47.404;18.836;2023-06-10T03:33:33;8.00;8.00;3.50
77692;PMS5003;66984;47.404;18.836;2023-06-10T03:34:43;10.00;8.00;3.00
77692;PMS5003;66984;47.404;18.836;2023-06-10T03:35:48;9.25;9.25;3.75
77692;PMS5003;66984;47.404;18.836;2023-06-10T03:36:51;10.25;9.75;3.00
77692;PMS5003;66984;47.404;18.836;2023-06-10T03:38:13;9.00;9.00;3.00
77692;PMS5003;66984;47.404;18.836;2023-06-10T03:39:17;9.00;8.00;3.25
77692;PMS5003;66984;47.404;18.836;2023-06-10T03:40:26;8.75;8.00;3.75
77692;PMS5003;66984;47.404;18.836;2023-06-10T03:41:29;11.25;10.75;5.00
77692;PMS5003;66984;47.404;18.836;2023-06-10T03:42:32;14.00;13.00;6.00
77692;PMS5003;66984;47.404;18.836;2023-06-10T03:43:35;14.00;13.00;5.00
77692;PMS5003;66984;47.404;18.836;2023-06-10T03:44:38;13.50;10.00;4.00
77692;PMS5003;66984;47.404;18.836;2023-06-10T03:45:47;13.00;10.00;4.25
77692;PMS5003;66984;47.404;18.836;2023-06-10T03:46:52;11.00;10.00;5.00
77692;PMS5003;66984;47.404;18.836;2023-06-10T03:48:01;11.50;9.00;4.00
77692;PMS5003;66984;47.404;18.836;2023-06-10T03:49:06;9.50;8.00;4.00
77692;PMS5003;66984;47.404;18.836;2023-06-10T03:50:09;10.00;9.00;4.00
77692;PMS5003;66984;47.404;18.836;2023-06-10T03:51:12;9.00;9.00;5.50
77692;PMS5003;66984;47.404;18.836;2023-06-10T03:52:15;9.00;9.00;4.00
77692;PMS5003;66984;47.404;18.836;2023-06-10T03:53:24;9.50;9.50;4.25
77692;PMS5003;66984;47.404;18.836;2023-06-10T03:54:27;8.00;8.00;4.00
77692;PMS5003;66984;47.404;18.836;2023-06-10T03:55:30;9.00;9.00;5.00
77692;PMS5003;66984;47.404;18.836;2023-06-10T03:56:34;7.00;7.00;4.00
77692;PMS5003;66984;47.404;18.836;2023-06-10T03:57:44;9.50;9.00;3.00
77692;PMS5003;66984;47.404;18.836;2023-06-10T03:58:47;10.00;8.50;3.00
77692;PMS5003;66984;47.404;18.836;2023-06-10T03:59:50;9.00;9.00;3.00
77692;PMS5003;66984;47.404;18.836;2023-06-10T04:00:53;12.50;11.00;4.00
77692;PMS5003;66984;47.404;18.836;2023-06-10T04:01:57;11.00;10.00;4.75
77692;PMS5003;66984;47.404;18.836;2023-06-10T04:03:09;11.00;9.00;4.75
77692;PMS5003;66984;47.404;18.836;2023-06-10T04:04:16;12.00;12.00;4.75
77692;PMS5003;66984;47.404;18.836;2023-06-10T04:05:19;13.75;13.75;5.00
77692;PMS5003;66984;47.404;18.836;2023-06-10T04:06:25;12.25;12.00;4.75
77692;PMS5003;66984;47.404;18.836;2023-06-10T04:07:28;13.00;11.00;4.75
77692;PMS5003;66984;47.404;18.836;2023-06-10T04:08:37;13.75;11.50;5.50
77692;PMS5003;66984;47.404;18.836;2023-06-10T04:09:41;17.75;12.00;5.00
77692;PMS5003;66984;47.404;18.836;2023-06-10T04:10:45;14.00;10.00;5.00
77692;PMS5003;66984;47.404;18.836;2023-06-10T04:11:48;14.00;11.00;5.00
77692;PMS5003;66984;47.404;18.836;2023-06-10T04:12:52;9.00;8.50;3.00
77692;PMS5003;66984;47.404;18.836;2023-06-10T04:14:14;10.00;9.00;4.00
77692;PMS5003;66984;47.404;18.836;2023-06-10T04:15:24;10.00;9.00;4.00
77692;PMS5003;66984;47.404;18.836;2023-06-10T04:16:42;9.00;8.25;4.00
77692;PMS5003;66984;47.404;18.836;2023-06-10T04:17:45;9.00;8.00;4.00
77692;PMS5003;66984;47.404;18.836;2023-06-10T04:18:49;9.50;9.50;5.00
77692;PMS5003;66984;47.404;18.836;2023-06-10T04:19:58;9.75;9.75;4.00
77692;PMS5003;66984;47.404;18.836;2023-06-10T04:21:03;8.00;8.00;3.00
77692;PMS5003;66984;47.404;18.836;2023-06-10T04:22:06;13.00;13.00;5.50
77692;PMS5003;66984;47.404;18.836;2023-06-10T04:23:09;9.00;8.25;4.00
77692;PMS5003;66984;47.404;18.836;2023-06-10T04:24:12;8.50;8.00;4.00
77692;PMS5003;66984;47.404;18.836;2023-06-10T04:25:22;9.00;7.75;3.25
77692;PMS5003;66984;47.404;18.836;2023-06-10T04:26:31;8.00;8.00;4.00
77692;PMS5003;66984;47.404;18.836;2023-06-10T04:27:34;10.75;10.25;4.00
77692;PMS5003;66984;47.404;18.836;2023-06-10T04:28:38;9.00;8.00;3.00
77692;PMS5003;66984;47.404;18.836;2023-06-10T04:29:41;9.25;8.75;4.00
77692;PMS5003;66984;47.404;18.836;2023-06-10T04:30:44;9.75;8.00;5.00
77692;PMS5003;66984;47.404;18.836;2023-06-10T04:31:54;9.00;8.00;3.00
77692;PMS5003;66984;47.404;18.836;2023-06-10T04:32:57;10.00;10.00;4.25
77692;PMS5003;66984;47.404;18.836;2023-06-10T04:34:00;10.00;9.00;4.00
77692;PMS5003;66984;47.404;18.836;2023-06-10T04:35:04;7.00;7.00;2.50
77692;PMS5003;66984;47.404;18.836;2023-06-10T04:36:08;8.50;8.25;2.00
77692;PMS5003;66984;47.404;18.836;2023-06-10T04:37:18;11.00;11.00;3.00
77692;PMS5003;66984;47.404;18.836;2023-06-10T04:38:21;11.00;10.00;3.00
77692;PMS5003;66984;47.404;18.836;2023-06-10T04:39:44;8.00;7.75;3.00
77692;PMS5003;66984;47.404;18.836;2023-06-10T04:40:47;11.25;10.50;4.00
77692;PMS5003;66984;47.404;18.836;2023-06-10T04:41:56;10.00;10.00;3.00
77692;PMS5003;66984;47.404;18.836;2023-06-10T04:42:59;9.00;9.00;3.25
77692;PMS5003;66984;47.404;18.836;2023-06-10T04:44:02;9.00;8.50;4.00
77692;PMS5003;66984;47.404;18.836;2023-06-10T04:45:06;14.75;14.00;5.00
77692;PMS5003;66984;47.404;18.836;2023-06-10T04:46:10;17.50;15.25;5.25
77692;PMS5003;66984;47.404;18.836;2023-06-10T04:47:20;18.75;14.25;5.00
77692;PMS5003;66984;47.404;18.836;2023-06-10T04:48:43;17.00;14.00;5.00
77692;PMS5003;66984;47.404;18.836;2023-06-10T04:49:49;13.00;10.00;4.25
77692;PMS5003;66984;47.404;18.836;2023-06-10T04:50:52;13.00;13.00;5.00
77692;PMS5003;66984;47.404;18.836;2023-06-10T04:51:55;8.25;8.25;4.00
77692;PMS5003;66984;47.404;18.836;2023-06-10T04:53:04;12.25;10.00;4.25
77692;PMS5003;66984;47.404;18.836;2023-06-10T04:54:08;17.00;13.75;6.00
77692;PMS5003;66984;47.404;18.836;2023-06-10T04:55:11;15.50;12.00;4.00
77692;PMS5003;66984;47.404;18.836;2023-06-10T04:56:14;15.00;11.00;4.00
77692;PMS5003;66984;47.404;18.836;2023-06-10T04:57:18;10.00;8.00;3.00
77692;PMS5003;66984;47.404;18.836;2023-06-10T04:58:29;10.00;10.00;3.50
77692;PMS5003;66984;47.404;18.836;2023-06-10T04:59:31;8.00;8.00;3.00
77692;PMS5003;66984;47.404;18.836;2023-06-10T05:00:34;10.75;9.75;4.00
77692;PMS5003;66984;47.404;18.836;2023-06-10T05:01:37;9.00;9.00;3.00
77692;PMS5003;66984;47.404;18.836;2023-06-10T05:02:40;9.00;8.00;2.00
77692;PMS5003;66984;47.404;18.836;2023-06-10T05:03:50;9.00;9.00;3.00
77692;PMS5003;66984;47.404;18.836;2023-06-10T05:04:53;15.25;12.75;5.00
77692;PMS5003;66984;47.404;18.836;2023-06-10T05:05:57;12.75;10.50;3.00
77692;PMS5003;66984;47.404;18.836;2023-06-10T05:07:00;12.00;11.00;5.00
77692;PMS5003;66984;47.404;18.836;2023-06-10T05:08:03;14.50;12.50;6.00
77692;PMS5003;66984;47.404;18.836;2023-06-10T05:09:13;13.75;11.25;5.00
77692;PMS5003;66984;47.404;18.836;2023-06-10T05:10:16;16.00;14.00;5.00
77692;PMS5003;66984;47.404;18.836;2023-06-10T05:11:19;15.00;14.00;5.00
77692;PMS5003;66984;47.404;18.836;2023-06-10T05:12:22;17.00;14.75;5.00
77692;PMS5003;66984;47.404;18.836;2023-06-10T05:13:24;18.00;16.50;5.00
77692;PMS5003;66984;47.404;18.836;2023-06-10T05:14:34;16.75;14.75;5.50
77692;PMS5003;66984;47.404;18.836;2023-06-10T05:15:43;12.25;11.00;4.25
77692;PMS5003;66984;47.404;18.836;2023-06-10T05:17:06;15.25;10.75;5.00
77692;PMS5003;66984;47.404;18.836;2023-06-10T05:18:09;20.50;15.50;7.50
77692;PMS5003;66984;47.404;18.836;2023-06-10T05:19:21;20.25;18.50;9.00
77692;PMS5003;66984;47.404;18.836;2023-06-10T05:20:24;20.00;18.00;6.00
77692;PMS5003;66984;47.404;18.836;2023-06-10T05:21:28;18.25;16.00;5.75
77692;PMS5003;66984;47.404;18.836;2023-06-10T05:22:31;18.00;17.00;6.75
77692;PMS5003;66984;47.404;18.836;2023-06-10T05:23:34;17.75;16.00;5.00
77692;PMS5003;66984;47.404;18.836;2023-06-10T05:24:44;16.00;15.00;5.00
77692;PMS5003;66984;47.404;18.836;2023-06-10T05:25:47;18.75;17.50;6.00
77692;PMS5003;66984;47.404;18.836;2023-06-10T05:26:50;17.00;15.00;5.00
77692;PMS5003;66984;47.404;18.836;2023-06-10T05:27:53;17.00;15.00;5.00
77692;PMS5003;66984;47.404;18.836;2023-06-10T05:28:56;17.00;14.00;4.25
77692;PMS5003;66984;47.404;18.836;2023-06-10T05:30:06;14.25;11.25;5.00
77692;PMS5003;66984;47.404;18.836;2023-06-10T05:31:10;14.00;11.00;4.00
77692;PMS5003;66984;47.404;18.836;2023-06-10T05:32:13;12.00;8.75;3.00
77692;PMS5003;66984;47.404;18.836;2023-06-10T05:33:16;10.00;9.00;3.00
77692;PMS5003;66984;47.404;18.836;2023-06-10T05:34:19;8.75;8.75;4.00
77692;PMS5003;66984;47.404;18.836;2023-06-10T05:35:29;8.00;8.00;3.00
77692;PMS5003;66984;47.404;18.836;2023-06-10T05:36:31;10.00;10.00;5.00
77692;PMS5003;66984;47.404;18.836;2023-06-10T05:37:35;9.00;8.00;3.00
77692;PMS5003;66984;47.404;18.836;2023-06-10T05:38:39;8.25;8.25;4.00
77692;PMS5003;66984;47.404;18.836;2023-06-10T05:39:42;10.00;9.00;3.00
77692;PMS5003;66984;47.404;18.836;2023-06-10T05:40:52;7.00;7.00;4.00
77692;PMS5003;66984;47.404;18.836;2023-06-10T05:41:55;9.50;9.50;4.50
77692;PMS5003;66984;47.404;18.836;2023-06-10T05:42:57;7.75;7.75;3.00
77692;PMS5003;66984;47.404;18.836;2023-06-10T05:44:00;8.50;7.50;4.00
77692;PMS5003;66984;47.404;18.836;2023-06-10T05:45:05;8.75;8.75;4.50
77692;PMS5003;66984;47.404;18.836;2023-06-10T05:46:16;11.00;9.00;4.00
77692;PMS5003;66984;47.404;18.836;2023-06-10T05:47:19;9.50;9.50;2.75
77692;PMS5003;66984;47.404;18.836;2023-06-10T05:48:22;9.50;9.50;4.50
77692;PMS5003;66984;47.404;18.836;2023-06-10T05:49:25;9.00;8.50;3.50
77692;PMS5003;66984;47.404;18.836;2023-06-10T05:50:28;9.00;7.00;3.00
77692;PMS5003;66984;47.404;18.836;2023-06-10T05:51:38;9.25;9.25;4.50
77692;PMS5003;66984;47.404;18.836;2023-06-10T05:52:41;9.50;9.50;3.50
77692;PMS5003;66984;47.404;18.836;2023-06-10T05:53:44;10.00;8.50;4.00
77692;PMS5003;66984;47.404;18.836;2023-06-10T05:54:49;12.50;10.50;4.50
77692;PMS5003;66984;47.404;18.836;2023-06-10T05:55:52;15.25;13.50;6.00
77692;PMS5003;66984;47.404;18.836;2023-06-10T05:57:06;16.75;14.75;6.50
77692;PMS5003;66984;47.404;18.836;2023-06-10T05:58:09;17.00;15.00;5.75
77692;PMS5003;66984;47.404;18.836;2023-06-10T05:59:14;18.00;14.00;6.00
77692;PMS5003;66984;47.404;18.836;2023-06-10T06:00:17;13.50;10.50;4.00
77692;PMS5003;66984;47.404;18.836;2023-06-10T06:01:21;9.50;8.50;4.25
77692;PMS5003;66984;47.404;18.836;2023-06-10T06:02:31;11.00;9.00;5.00
77692;PMS5003;66984;47.404;18.836;2023-06-10T06:03:34;9.00;6.00;3.00
77692;PMS5003;66984;47.404;18.836;2023-06-10T06:04:37;5.75;5.75;2.50
77692;PMS5003;66984;47.404;18.836;2023-06-10T06:05:40;7.50;7.50;2.00
77692;PMS5003;66984;47.404;18.836;2023-06-10T06:06:43;9.00;9.00;3.75
77692;PMS5003;66984;47.404;18.836;2023-06-10T06:07:53;7.00;6.00;4.00
77692;PMS5003;66984;47.404;18.836;2023-06-10T06:08:56;6.50;6.50;3.00
77692;PMS5003;66984;47.404;18.836;2023-06-10T06:09:59;7.50;6.00;2.50
77692;PMS5003;66984;47.404;18.836;2023-06-10T06:11:02;6.00;6.00;2.00
77692;PMS5003;66984;47.404;18.836;2023-06-10T06:12:05;7.00;6.75;1.00
77692;PMS5003;66984;47.404;18.836;2023-06-10T06:13:16;8.50;7.25;2.00
77692;PMS5003;66984;47.404;18.836;2023-06-10T06:14:19;6.75;5.00;2.00
77692;PMS5003;66984;47.404;18.836;2023-06-10T06:15:22;6.00;6.00;3.25